Englewood, Ohio
Current Conditions -  °F | °C
As of 1:56 PM on Friday 28 Nov 2014 (Local Time) from KDAY Reporting Station
Broken Clouds Broken Clouds  
Wind Chill: 23°   Ceiling: 12000
Heat Index: 32°   Visibility: 10mi
Dew Point: 19°   Wind: 13mph
Humidity: 59%   Direction: 200°SSW
Pressure: 30.24"   Gusts: NA
Location:  39.88°N, 84.31°W
Report Text: KDAY 281856Z 20011KT 10SM SCT045 BKN120 BKN140 00/M07 A3024 RMK AO2 SLP253 T00001072 $
Loading
Personal Weather Stations






























Interactive Weather Map New forecast layout! Learn more

10-Day Weather Forecast

Advertisements
Track Severe Weather on mobile